createdAt,value
2023-08-24T00:00:13.154Z,1003.91
2023-08-24T00:01:13.363Z,1003.91
2023-08-24T00:02:13.275Z,1003.92
2023-08-24T00:03:13.405Z,1003.90
2023-08-24T00:04:13.766Z,1003.89
2023-08-24T00:05:13.683Z,1003.88
2023-08-24T00:06:13.636Z,1003.90
2023-08-24T00:07:13.830Z,1003.89
2023-08-24T00:08:13.797Z,1003.89
2023-08-24T00:09:13.741Z,1003.87
2023-08-24T00:10:13.841Z,1003.89
2023-08-24T00:11:13.735Z,1003.89
2023-08-24T00:12:13.487Z,1003.86
2023-08-24T00:13:13.701Z,1003.85
2023-08-24T00:14:13.502Z,1003.87
2023-08-24T00:15:13.707Z,1003.87
2023-08-24T00:16:14.010Z,1003.90
2023-08-24T00:17:13.105Z,1003.85
2023-08-24T00:18:13.224Z,1003.85
2023-08-24T00:19:13.356Z,1003.85
2023-08-24T00:20:13.213Z,1003.83
2023-08-24T00:21:18.368Z,1003.81
2023-08-24T00:22:13.197Z,1003.78
2023-08-24T00:23:13.111Z,1003.75
2023-08-24T00:24:17.966Z,1003.74
2023-08-24T00:25:28.090Z,1003.74
2023-08-24T00:26:13.225Z,1003.78
2023-08-24T00:27:13.128Z,1003.72
2023-08-24T00:28:13.092Z,1003.72
2023-08-24T00:29:13.037Z,1003.69
2023-08-24T00:30:13.165Z,1003.67
2023-08-24T00:31:13.352Z,1003.67
2023-08-24T00:32:13.239Z,1003.68
2023-08-24T00:33:13.164Z,1003.70
2023-08-24T00:34:13.094Z,1003.66
2023-08-24T00:35:12.950Z,1003.67
2023-08-24T00:36:13.048Z,1003.68
2023-08-24T00:37:13.156Z,1003.66
2023-08-24T00:38:13.044Z,1003.66
2023-08-24T00:39:12.820Z,1003.68
2023-08-24T00:40:13.625Z,1003.70
2023-08-24T00:41:13.536Z,1003.69
2023-08-24T00:42:13.634Z,1003.70
2023-08-24T00:43:14.155Z,1003.66
2023-08-24T00:44:13.157Z,1003.66
2023-08-24T00:45:13.204Z,1003.65
2023-08-24T00:46:13.134Z,1003.65
2023-08-24T00:47:13.399Z,1003.64
2023-08-24T00:48:13.490Z,1003.59
2023-08-24T00:49:13.413Z,1003.63
2023-08-24T00:50:13.646Z,1003.60
2023-08-24T00:51:13.683Z,1003.61
2023-08-24T00:52:13.584Z,1003.62
2023-08-24T00:53:13.621Z,1003.63
2023-08-24T00:54:13.714Z,1003.61
2023-08-24T00:55:13.671Z,1003.58
2023-08-24T00:56:13.704Z,1003.58
2023-08-24T00:57:13.474Z,1003.57
2023-08-24T00:58:13.576Z,1003.57
2023-08-24T00:59:15.046Z,1003.55
2023-08-24T01:00:12.969Z,1003.55
2023-08-24T01:01:12.821Z,1003.56
2023-08-24T01:02:13.685Z,1003.49
2023-08-24T01:03:13.616Z,1003.49
2023-08-24T01:04:13.854Z,1003.47
2023-08-24T01:05:14.021Z,1003.47
2023-08-24T01:06:12.976Z,1003.47
2023-08-24T01:07:12.917Z,1003.48
2023-08-24T01:08:12.558Z,1003.52
2023-08-24T01:09:13.797Z,1003.51
2023-08-24T01:10:13.829Z,1003.52
2023-08-24T01:11:14.057Z,1003.50
2023-08-24T01:12:12.787Z,1003.49
2023-08-24T01:13:13.795Z,1003.48
2023-08-24T01:14:13.634Z,1003.52
2023-08-24T01:15:13.617Z,1003.51
2023-08-24T01:16:13.528Z,1003.50
2023-08-24T01:17:13.348Z,1003.51
2023-08-24T01:18:13.083Z,1003.49
2023-08-24T01:19:13.087Z,1003.51
2023-08-24T01:20:13.100Z,1003.49
2023-08-24T01:21:13.094Z,1003.51
2023-08-24T01:22:12.931Z,1003.50
2023-08-24T01:23:18.080Z,1003.48
2023-08-24T01:24:12.982Z,1003.47
2023-08-24T01:25:13.043Z,1003.51
2023-08-24T01:27:13.380Z,1003.51
2023-08-24T01:28:18.461Z,1003.50
2023-08-24T01:29:13.610Z,1003.51
2023-08-24T01:30:13.624Z,1003.50
2023-08-24T01:31:13.564Z,1003.49
2023-08-24T01:33:13.447Z,1003.44
2023-08-24T01:34:18.526Z,1003.41
2023-08-24T01:35:13.830Z,1003.37
2023-08-24T01:36:13.982Z,1003.38
2023-08-24T01:37:13.013Z,1003.36
2023-08-24T01:38:13.018Z,1003.31
2023-08-24T01:40:13.535Z,1003.30
2023-08-24T01:41:13.374Z,1003.27
2023-08-24T01:42:13.201Z,1003.25
2023-08-24T01:43:13.206Z,1003.28
2023-08-24T01:44:13.376Z,1003.26
2023-08-24T01:45:13.505Z,1003.28
2023-08-24T01:46:13.602Z,1003.30
2023-08-24T01:47:14.740Z,1003.34
2023-08-24T01:48:13.925Z,1003.31
2023-08-24T01:49:12.862Z,1003.32
2023-08-24T01:50:13.835Z,1003.31
2023-08-24T01:51:13.736Z,1003.30
2023-08-24T01:52:13.538Z,1003.35
2023-08-24T01:53:13.472Z,1003.35
2023-08-24T01:54:13.432Z,1003.33
2023-08-24T01:55:13.342Z,1003.32
2023-08-24T01:56:13.389Z,1003.30
2023-08-24T01:57:13.432Z,1003.27
2023-08-24T01:58:13.549Z,1003.25
2023-08-24T01:59:13.400Z,1003.26
2023-08-24T02:00:13.372Z,1003.27
2023-08-24T02:01:28.336Z,1003.24
2023-08-24T02:02:13.405Z,1003.27
2023-08-24T02:03:13.738Z,1003.30
2023-08-24T02:04:13.785Z,1003.30
2023-08-24T02:05:13.723Z,1003.32
2023-08-24T02:06:13.874Z,1003.31
2023-08-24T02:07:18.899Z,1003.31
2023-08-24T02:08:12.858Z,1003.35
2023-08-24T02:09:13.901Z,1003.37
2023-08-24T02:10:13.481Z,1003.34
2023-08-24T02:11:14.152Z,1003.30
2023-08-24T02:12:13.279Z,1003.29
2023-08-24T02:13:13.151Z,1003.26
2023-08-24T02:14:13.309Z,1003.21
2023-08-24T02:15:13.260Z,1003.20
2023-08-24T02:16:13.139Z,1003.14
2023-08-24T02:17:13.112Z,1003.11
2023-08-24T02:18:13.096Z,1003.05
2023-08-24T02:19:13.141Z,1003.05
2023-08-24T02:20:12.866Z,1003.03
2023-08-24T02:21:13.899Z,1003.01
2023-08-24T02:22:14.061Z,1003.05
2023-08-24T02:23:13.360Z,1003.04
2023-08-24T02:24:13.242Z,1003.07
2023-08-24T02:25:13.125Z,1003.05
2023-08-24T02:26:13.162Z,1003.07
2023-08-24T02:27:13.163Z,1003.05
2023-08-24T02:28:13.217Z,1003.06
2023-08-24T02:29:13.189Z,1003.06
2023-08-24T02:30:13.225Z,1003.03
2023-08-24T02:31:14.419Z,1003.05
2023-08-24T02:32:13.383Z,1003.07
2023-08-24T02:33:13.485Z,1003.03
2023-08-24T02:34:13.456Z,1003.05
2023-08-24T02:35:13.764Z,1003.03
2023-08-24T02:36:13.882Z,1003.05
2023-08-24T02:37:12.762Z,1003.06
2023-08-24T02:38:13.937Z,1003.12
2023-08-24T02:39:12.817Z,1003.16
2023-08-24T02:40:13.783Z,1003.19
2023-08-24T02:41:13.711Z,1003.19
2023-08-24T02:42:12.855Z,1003.20
2023-08-24T02:43:14.755Z,1003.20
2023-08-24T02:44:13.963Z,1003.18
2023-08-24T02:45:12.959Z,1003.17
2023-08-24T02:46:13.208Z,1003.13
2023-08-24T02:47:13.160Z,1003.09
2023-08-24T02:48:13.337Z,1003.10
2023-08-24T02:49:13.537Z,1003.11
2023-08-24T02:50:18.868Z,1003.10
2023-08-24T02:51:44.540Z,1003.05
2023-08-24T02:52:13.514Z,1003.02
2023-08-24T02:53:13.538Z,1002.99
2023-08-24T02:55:18.630Z,1002.96
2023-08-24T02:56:13.769Z,1002.98
2023-08-24T02:57:13.511Z,1002.99
2023-08-24T02:58:13.694Z,1002.98
2023-08-24T02:59:13.572Z,1003.01
2023-08-24T03:00:13.789Z,1003.00
2023-08-24T03:01:14.338Z,1003.01
2023-08-24T03:02:13.559Z,1003.02
2023-08-24T03:04:13.304Z,1003.06
2023-08-24T03:05:13.452Z,1003.07
2023-08-24T03:06:33.407Z,1003.08
2023-08-24T03:07:13.322Z,1003.06
2023-08-24T03:08:13.229Z,1003.06
2023-08-24T03:09:13.071Z,1003.09
2023-08-24T03:10:13.258Z,1003.04
2023-08-24T03:11:13.201Z,1003.01
2023-08-24T03:12:13.206Z,1003.04
2023-08-24T03:13:13.398Z,1003.02
2023-08-24T03:14:13.249Z,1003.00
2023-08-24T03:15:13.297Z,1003.00
2023-08-24T03:16:13.301Z,1003.00
2023-08-24T03:17:13.783Z,1003.02
2023-08-24T03:18:13.836Z,1003.06
2023-08-24T03:19:13.776Z,1003.03
2023-08-24T03:20:13.807Z,1003.04
2023-08-24T03:21:14.120Z,1003.03
2023-08-24T03:22:13.223Z,1003.08
2023-08-24T03:23:13.269Z,1003.07
2023-08-24T03:24:13.386Z,1003.07
2023-08-24T03:25:13.154Z,1003.10
2023-08-24T03:26:13.272Z,1003.13
2023-08-24T03:27:13.379Z,1003.13
2023-08-24T03:28:13.265Z,1003.10
2023-08-24T03:29:13.162Z,1003.10
2023-08-24T03:30:12.967Z,1003.03
2023-08-24T03:31:12.863Z,1002.96
2023-08-24T03:32:12.963Z,1002.91
2023-08-24T03:33:13.127Z,1002.90
2023-08-24T03:34:13.011Z,1002.93
2023-08-24T03:35:12.806Z,1002.93
2023-08-24T03:36:13.959Z,1002.92
2023-08-24T03:37:18.096Z,1002.93
2023-08-24T03:38:12.995Z,1002.95
2023-08-24T03:39:12.922Z,1002.94
2023-08-24T03:40:12.899Z,1002.95
2023-08-24T03:41:12.993Z,1002.99
2023-08-24T03:42:13.003Z,1003.00
2023-08-24T03:43:12.956Z,1003.02
2023-08-24T03:44:12.930Z,1002.99
2023-08-24T03:45:12.885Z,1002.97
2023-08-24T03:46:13.125Z,1002.95
2023-08-24T03:47:13.197Z,1002.91
2023-08-24T03:48:13.102Z,1002.94
2023-08-24T03:49:13.334Z,1002.93
2023-08-24T03:50:13.257Z,1002.93
2023-08-24T03:51:13.376Z,1002.92
2023-08-24T03:52:28.241Z,1002.90
2023-08-24T03:53:23.249Z,1002.88
2023-08-24T03:54:13.038Z,1002.86
2023-08-24T03:56:23.568Z,1002.87
2023-08-24T03:57:18.680Z,1002.92
2023-08-24T03:58:13.765Z,1002.96
2023-08-24T03:59:13.598Z,1003.01
2023-08-24T04:00:13.510Z,1003.04
2023-08-24T04:01:13.618Z,1003.05
2023-08-24T04:02:13.770Z,1003.08
2023-08-24T04:03:13.907Z,1003.06
2023-08-24T04:04:13.069Z,1003.06
2023-08-24T04:05:12.880Z,1003.10
2023-08-24T04:06:12.817Z,1003.11
2023-08-24T04:07:13.918Z,1003.14
2023-08-24T04:08:12.892Z,1003.13
2023-08-24T04:09:13.002Z,1003.15
2023-08-24T04:10:12.896Z,1003.20
2023-08-24T04:11:12.912Z,1003.19
2023-08-24T04:12:12.968Z,1003.22
2023-08-24T04:13:13.103Z,1003.21
2023-08-24T04:14:12.949Z,1003.28
2023-08-24T04:15:12.985Z,1003.29
2023-08-24T04:16:13.305Z,1003.26
2023-08-24T04:17:13.409Z,1003.25
2023-08-24T04:18:13.610Z,1003.23
2023-08-24T04:19:13.531Z,1003.20
2023-08-24T04:20:13.509Z,1003.16
2023-08-24T04:21:13.358Z,1003.15
2023-08-24T04:22:13.447Z,1003.15
2023-08-24T04:23:13.657Z,1003.09
2023-08-24T04:24:13.733Z,1003.10
2023-08-24T04:25:14.130Z,1003.03
2023-08-24T04:26:13.203Z,1003.00
2023-08-24T04:27:13.065Z,1002.98
2023-08-24T04:28:13.188Z,1002.95
2023-08-24T04:29:13.278Z,1002.94
2023-08-24T04:30:13.562Z,1002.89
2023-08-24T04:31:13.784Z,1002.88
2023-08-24T04:32:13.885Z,1002.88
2023-08-24T04:33:13.031Z,1002.83
2023-08-24T04:34:13.151Z,1002.82
2023-08-24T04:35:13.434Z,1002.82
2023-08-24T04:36:13.395Z,1002.78
2023-08-24T04:37:13.381Z,1002.80
2023-08-24T04:38:14.049Z,1002.80
2023-08-24T04:39:13.267Z,1002.81
2023-08-24T04:40:13.257Z,1002.80
2023-08-24T04:41:13.248Z,1002.84
2023-08-24T04:42:13.337Z,1002.85
2023-08-24T04:43:13.212Z,1002.88
2023-08-24T04:44:13.440Z,1002.89
2023-08-24T04:45:13.951Z,1002.92
2023-08-24T04:46:12.946Z,1002.90
2023-08-24T04:47:12.994Z,1002.91
2023-08-24T04:48:13.121Z,1002.91
2023-08-24T04:49:13.110Z,1002.93
2023-08-24T04:50:13.229Z,1002.95
2023-08-24T04:51:13.362Z,1002.94
2023-08-24T04:52:13.338Z,1002.88
2023-08-24T04:53:13.242Z,1002.86
2023-08-24T04:54:13.249Z,1002.82
2023-08-24T04:55:13.048Z,1002.83
2023-08-24T04:56:12.908Z,1002.82
2023-08-24T04:57:12.930Z,1002.77
2023-08-24T04:58:12.838Z,1002.75
2023-08-24T04:59:13.700Z,1002.77
2023-08-24T05:00:13.785Z,1002.83
2023-08-24T05:01:13.824Z,1002.86
2023-08-24T05:02:13.895Z,1002.84
2023-08-24T05:03:13.098Z,1002.84
2023-08-24T05:04:13.229Z,1002.80
2023-08-24T05:05:13.119Z,1002.74
2023-08-24T05:06:12.973Z,1002.76
2023-08-24T05:07:12.773Z,1002.69
2023-08-24T05:08:13.853Z,1002.68
2023-08-24T05:09:13.798Z,1002.67
2023-08-24T05:10:14.027Z,1002.65
2023-08-24T05:11:13.108Z,1002.62
2023-08-24T05:12:13.377Z,1002.62
2023-08-24T05:13:13.478Z,1002.56
2023-08-24T05:14:13.513Z,1002.51
2023-08-24T05:15:13.608Z,1002.45
2023-08-24T05:16:13.953Z,1002.40
2023-08-24T05:17:13.005Z,1002.39
2023-08-24T05:18:13.294Z,1002.39
2023-08-24T05:19:13.274Z,1002.39
2023-08-24T05:20:13.462Z,1002.39
2023-08-24T05:21:13.421Z,1002.42
2023-08-24T05:22:13.210Z,1002.42
2023-08-24T05:23:13.315Z,1002.42
2023-08-24T05:24:13.233Z,1002.46
2023-08-24T05:25:13.192Z,1002.44
2023-08-24T05:26:13.054Z,1002.44
2023-08-24T05:27:12.918Z,1002.44
2023-08-24T05:28:12.880Z,1002.43
2023-08-24T05:29:13.784Z,1002.40
2023-08-24T05:30:13.667Z,1002.38
2023-08-24T05:31:13.925Z,1002.32
2023-08-24T05:32:12.862Z,1002.29
2023-08-24T05:33:13.813Z,1002.26
2023-08-24T05:34:13.803Z,1002.27
2023-08-24T05:35:13.967Z,1002.27
2023-08-24T05:36:12.897Z,1002.22
2023-08-24T05:37:12.890Z,1002.22
2023-08-24T05:38:12.794Z,1002.19
2023-08-24T05:39:13.615Z,1002.20
2023-08-24T05:40:13.663Z,1002.17
2023-08-24T05:41:13.693Z,1002.18
2023-08-24T05:42:14.007Z,1002.17
2023-08-24T05:43:13.119Z,1002.16
2023-08-24T05:44:13.029Z,1002.13
2023-08-24T05:45:12.819Z,1002.08
2023-08-24T05:46:13.864Z,1002.06
2023-08-24T05:47:12.957Z,1002.01
2023-08-24T05:48:13.146Z,1001.94
2023-08-24T05:49:13.692Z,1001.90
2023-08-24T05:50:13.394Z,1001.86
2023-08-24T05:51:13.592Z,1001.84
2023-08-24T05:52:13.663Z,1001.84
2023-08-24T05:53:13.707Z,1001.81
2023-08-24T05:54:13.778Z,1001.79
2023-08-24T05:55:13.506Z,1001.75
2023-08-24T05:56:13.362Z,1001.73
2023-08-24T05:57:13.294Z,1001.66
2023-08-24T05:58:13.478Z,1001.70
2023-08-24T05:59:13.451Z,1001.67
2023-08-24T06:00:13.332Z,1001.67
2023-08-24T06:01:13.342Z,1001.61
2023-08-24T06:02:13.559Z,1001.60
2023-08-24T06:03:13.546Z,1001.63
2023-08-24T06:04:13.659Z,1001.59
2023-08-24T06:05:14.010Z,1001.57
2023-08-24T06:06:13.106Z,1001.56
2023-08-24T06:07:13.398Z,1001.54
2023-08-24T06:08:13.364Z,1001.50
2023-08-24T06:09:13.372Z,1001.54
2023-08-24T06:10:13.437Z,1001.49
2023-08-24T06:11:13.339Z,1001.52
2023-08-24T06:12:13.198Z,1001.50
2023-08-24T06:13:13.075Z,1001.55
2023-08-24T06:14:13.101Z,1001.54
2023-08-24T06:15:13.590Z,1001.52
2023-08-24T06:16:14.235Z,1001.51
2023-08-24T06:17:13.434Z,1001.52
2023-08-24T06:18:13.174Z,1001.54
2023-08-24T06:19:13.505Z,1001.54
2023-08-24T06:20:13.392Z,1001.56
2023-08-24T06:21:13.603Z,1001.54
2023-08-24T06:22:13.716Z,1001.54
2023-08-24T06:23:13.808Z,1001.52
2023-08-24T06:24:13.645Z,1001.48
2023-08-24T06:25:13.626Z,1001.42
2023-08-24T06:26:13.762Z,1001.43
2023-08-24T06:27:13.664Z,1001.43
2023-08-24T06:28:13.549Z,1001.41
2023-08-24T06:29:13.541Z,1001.37
2023-08-24T06:30:18.497Z,1001.41
2023-08-24T06:31:13.611Z,1001.41
2023-08-24T06:32:14.029Z,1001.39
2023-08-24T06:33:12.992Z,1001.41
2023-08-24T06:34:12.984Z,1001.44
2023-08-24T06:35:13.040Z,1001.46
2023-08-24T06:36:12.976Z,1001.46
2023-08-24T06:37:13.317Z,1001.42
2023-08-24T06:38:13.454Z,1001.43
2023-08-24T06:39:13.188Z,1001.46
2023-08-24T06:40:13.102Z,1001.46
2023-08-24T06:41:12.964Z,1001.42
2023-08-24T06:42:12.970Z,1001.44
2023-08-24T06:43:13.007Z,1001.45
2023-08-24T06:44:12.957Z,1001.48
2023-08-24T06:45:12.904Z,1001.46
2023-08-24T06:46:12.963Z,1001.48
2023-08-24T06:47:12.852Z,1001.48
2023-08-24T06:48:12.958Z,1001.49
2023-08-24T06:49:13.684Z,1001.50
2023-08-24T06:50:14.534Z,1001.45
2023-08-24T06:51:13.471Z,1001.44
2023-08-24T06:52:13.489Z,1001.44
2023-08-24T06:53:13.632Z,1001.42
2023-08-24T06:54:13.904Z,1001.41
2023-08-24T06:55:12.881Z,1001.44
2023-08-24T06:56:13.936Z,1001.41
2023-08-24T06:57:12.981Z,1001.41
2023-08-24T06:58:12.837Z,1001.39
2023-08-24T06:59:13.960Z,1001.37
2023-08-24T07:00:12.897Z,1001.39
2023-08-24T07:01:13.046Z,1001.36
2023-08-24T07:02:13.260Z,1001.39
2023-08-24T07:03:13.190Z,1001.38
2023-08-24T07:04:13.354Z,1001.38
2023-08-24T07:05:13.595Z,1001.38
2023-08-24T07:06:13.458Z,1001.43
2023-08-24T07:07:13.405Z,1001.40
2023-08-24T07:08:13.509Z,1001.43
2023-08-24T07:09:13.392Z,1001.42
2023-08-24T07:10:13.257Z,1001.40
2023-08-24T07:11:13.182Z,1001.38
2023-08-24T07:12:13.052Z,1001.41
2023-08-24T07:13:13.314Z,1001.39
2023-08-24T07:14:13.414Z,1001.41
2023-08-24T07:15:13.430Z,1001.40
2023-08-24T07:16:13.362Z,1001.37
2023-08-24T07:17:13.354Z,1001.37
2023-08-24T07:18:14.877Z,1001.34
2023-08-24T07:19:13.130Z,1001.35
2023-08-24T07:20:13.362Z,1001.36
2023-08-24T07:21:13.144Z,1001.34
2023-08-24T07:22:12.973Z,1001.36
2023-08-24T07:23:13.113Z,1001.36
2023-08-24T07:24:13.199Z,1001.37
2023-08-24T07:25:13.080Z,1001.37
2023-08-24T07:26:13.213Z,1001.36
2023-08-24T07:27:13.428Z,1001.34
2023-08-24T07:28:13.492Z,1001.33
2023-08-24T07:29:13.561Z,1001.33
2023-08-24T07:30:26.293Z,1001.34
2023-08-24T07:31:13.034Z,1001.34
2023-08-24T07:32:13.227Z,1001.33
2023-08-24T07:33:13.414Z,1001.32
2023-08-24T07:34:13.367Z,1001.32
2023-08-24T07:35:13.324Z,1001.36
2023-08-24T07:36:13.196Z,1001.37
2023-08-24T07:37:13.418Z,1001.34
2023-08-24T07:38:13.231Z,1001.34
2023-08-24T07:39:13.849Z,1001.34
2023-08-24T07:40:13.182Z,1001.30
2023-08-24T07:41:13.436Z,1001.31
2023-08-24T07:42:13.406Z,1001.30
2023-08-24T07:43:13.310Z,1001.30
2023-08-24T07:44:13.471Z,1001.32
2023-08-24T07:45:13.492Z,1001.33
2023-08-24T07:46:13.391Z,1001.31
2023-08-24T07:47:13.195Z,1001.34
2023-08-24T07:48:13.426Z,1001.32
2023-08-24T07:49:13.276Z,1001.29
2023-08-24T07:50:13.228Z,1001.34
2023-08-24T07:51:13.269Z,1001.28
2023-08-24T07:52:13.316Z,1001.30
2023-08-24T07:53:13.304Z,1001.26
2023-08-24T07:54:13.352Z,1001.27
2023-08-24T07:55:13.403Z,1001.29
2023-08-24T07:56:13.297Z,1001.30
2023-08-24T07:57:13.280Z,1001.25
2023-08-24T07:58:13.250Z,1001.26
2023-08-24T07:59:13.291Z,1001.23
2023-08-24T08:00:13.277Z,1001.20
2023-08-24T08:01:13.205Z,1001.16
2023-08-24T08:02:13.311Z,1001.18
2023-08-24T08:03:13.411Z,1001.19
2023-08-24T08:04:19.226Z,1001.15
2023-08-24T08:05:12.951Z,1001.17
2023-08-24T08:06:12.848Z,1001.13
2023-08-24T08:07:13.937Z,1001.10
2023-08-24T08:08:13.196Z,1001.11
2023-08-24T08:09:13.126Z,1001.08
2023-08-24T08:10:13.371Z,1001.10
2023-08-24T08:11:13.208Z,1001.07
2023-08-24T08:12:13.050Z,1001.09
2023-08-24T08:13:13.132Z,1001.09
2023-08-24T08:14:13.243Z,1001.09
2023-08-24T08:15:13.190Z,1001.10
2023-08-24T08:16:13.208Z,1001.09
2023-08-24T08:17:13.120Z,1001.10
2023-08-24T08:18:12.997Z,1001.09
2023-08-24T08:19:12.890Z,1001.10
2023-08-24T08:20:12.962Z,1001.10
2023-08-24T08:21:13.203Z,1001.11
2023-08-24T08:22:18.125Z,1001.14
2023-08-24T08:23:13.200Z,1001.18
2023-08-24T08:24:17.819Z,1001.19
2023-08-24T08:25:13.133Z,1001.25
2023-08-24T08:26:13.161Z,1001.29
2023-08-24T08:27:13.037Z,1001.28
2023-08-24T08:28:12.984Z,1001.28
2023-08-24T08:29:12.981Z,1001.30
2023-08-24T08:30:12.989Z,1001.27
2023-08-24T08:31:13.321Z,1001.26
2023-08-24T08:32:13.544Z,1001.24
2023-08-24T08:33:13.382Z,1001.20
2023-08-24T08:34:13.570Z,1001.21
2023-08-24T08:35:13.486Z,1001.23
2023-08-24T08:36:13.793Z,1001.19
2023-08-24T08:37:13.974Z,1001.22
2023-08-24T08:38:12.839Z,1001.19
2023-08-24T08:39:13.607Z,1001.16
2023-08-24T08:40:13.768Z,1001.12
2023-08-24T08:41:13.918Z,1001.10
2023-08-24T08:42:13.379Z,1001.05
2023-08-24T08:43:13.463Z,1000.97
2023-08-24T08:44:13.331Z,1000.96
2023-08-24T08:45:13.321Z,1000.92
2023-08-24T08:46:13.947Z,1000.94
2023-08-24T08:47:13.003Z,1000.94
2023-08-24T08:48:13.055Z,1000.91
2023-08-24T08:49:13.067Z,1000.93
2023-08-24T08:50:12.883Z,1000.92
2023-08-24T08:51:12.837Z,1000.91
2023-08-24T08:52:13.758Z,1000.95
2023-08-24T08:53:13.732Z,1000.89
2023-08-24T08:54:13.865Z,1000.87
2023-08-24T08:55:13.795Z,1000.86
2023-08-24T08:56:14.007Z,1000.86
2023-08-24T08:57:12.982Z,1000.85
2023-08-24T08:58:13.076Z,1000.81
2023-08-24T08:59:13.240Z,1000.78
2023-08-24T09:00:13.353Z,1000.82
2023-08-24T09:01:13.305Z,1000.82
2023-08-24T09:02:13.439Z,1000.81
2023-08-24T09:03:14.060Z,1000.84
2023-08-24T09:04:13.261Z,1000.78
2023-08-24T09:05:13.107Z,1000.79
2023-08-24T09:06:13.024Z,1000.77
2023-08-24T09:07:12.868Z,1000.74
2023-08-24T09:08:13.907Z,1000.74
2023-08-24T09:09:12.941Z,1000.74
2023-08-24T09:10:12.814Z,1000.79
2023-08-24T09:11:13.798Z,1000.77
2023-08-24T09:12:13.638Z,1000.78
2023-08-24T09:13:13.562Z,1000.77
2023-08-24T09:14:13.617Z,1000.78
2023-08-24T09:15:13.600Z,1000.75
2023-08-24T09:16:13.688Z,1000.74
2023-08-24T09:17:14.022Z,1000.68
2023-08-24T09:18:13.157Z,1000.68
2023-08-24T09:19:13.406Z,1000.65
2023-08-24T09:20:13.568Z,1000.62
2023-08-24T09:21:13.494Z,1000.59
2023-08-24T09:22:13.431Z,1000.60
2023-08-24T09:23:18.508Z,1000.59
2023-08-24T09:24:13.976Z,1000.55
2023-08-24T09:25:13.161Z,1000.52
2023-08-24T09:26:13.171Z,1000.48
2023-08-24T09:27:13.473Z,1000.33
2023-08-24T09:28:13.608Z,1000.33
2023-08-24T09:29:13.414Z,1000.25
2023-08-24T09:30:13.505Z,1000.23
2023-08-24T09:31:13.462Z,1000.19
2023-08-24T09:32:13.513Z,1000.17
2023-08-24T09:33:13.533Z,1000.16
2023-08-24T09:34:13.443Z,1000.16
2023-08-24T09:35:13.403Z,1000.18
2023-08-24T09:36:13.538Z,1000.10
2023-08-24T09:37:13.610Z,1000.07
2023-08-24T09:38:13.651Z,1000.04
2023-08-24T09:39:13.518Z,1000.06
2023-08-24T09:40:13.559Z,1000.03
2023-08-24T09:41:13.371Z,999.99
2023-08-24T09:42:13.436Z,1000.00
2023-08-24T09:43:13.447Z,999.98
2023-08-24T09:44:13.595Z,999.96
2023-08-24T09:45:13.461Z,999.93
2023-08-24T09:46:13.418Z,999.91
2023-08-24T09:47:13.577Z,999.84
2023-08-24T09:48:13.698Z,999.82
2023-08-24T09:49:13.693Z,999.75
2023-08-24T09:50:18.688Z,999.72
2023-08-24T09:51:32.610Z,999.65
2023-08-24T09:52:13.746Z,999.67
2023-08-24T09:53:13.804Z,999.69
2023-08-24T09:54:13.841Z,999.64
2023-08-24T09:55:13.795Z,999.66
2023-08-24T09:56:13.673Z,999.63
2023-08-24T09:57:13.491Z,999.60
2023-08-24T09:58:13.507Z,999.60
2023-08-24T09:59:13.783Z,999.60
2023-08-24T10:00:14.308Z,999.60
2023-08-24T10:01:13.413Z,999.59
2023-08-24T10:02:13.600Z,999.62
2023-08-24T10:03:13.671Z,999.64
2023-08-24T10:04:13.947Z,999.62
2023-08-24T10:05:21.767Z,999.61
2023-08-24T10:06:13.198Z,999.57
2023-08-24T10:07:13.176Z,999.54
2023-08-24T10:08:13.236Z,999.56
2023-08-24T10:09:13.387Z,999.54
2023-08-24T10:10:13.286Z,999.57
2023-08-24T10:11:16.071Z,999.62
2023-08-24T10:12:13.267Z,999.62
2023-08-24T10:13:13.314Z,999.71
2023-08-24T10:14:13.325Z,999.77
2023-08-24T10:15:13.236Z,999.82
2023-08-24T10:16:13.324Z,999.81
2023-08-24T10:17:15.326Z,999.89
2023-08-24T10:18:13.547Z,999.97
2023-08-24T10:19:13.601Z,1000.02
2023-08-24T10:20:13.822Z,1000.08
2023-08-24T10:21:13.873Z,1000.14
2023-08-24T10:22:13.979Z,1000.11
2023-08-24T10:23:12.887Z,1000.18
2023-08-24T10:24:12.792Z,1000.20
2023-08-24T10:25:13.813Z,1000.15
2023-08-24T10:26:13.697Z,1000.15
2023-08-24T10:27:13.128Z,1000.13
2023-08-24T10:28:13.330Z,1000.11
2023-08-24T10:29:13.247Z,1000.09
2023-08-24T10:30:49.486Z,1000.10
2023-08-24T10:31:01.484Z,1000.12
2023-08-24T10:31:13.657Z,1000.13
2023-08-24T10:32:14.336Z,1000.18
2023-08-24T10:33:13.366Z,1000.19
2023-08-24T10:34:13.316Z,1000.19
2023-08-24T10:35:15.388Z,1000.16
2023-08-24T10:36:13.466Z,1000.18
2023-08-24T10:37:13.367Z,1000.14
2023-08-24T10:38:13.368Z,1000.12
2023-08-24T10:39:13.683Z,1000.16
2023-08-24T10:40:13.721Z,1000.15
2023-08-24T10:41:15.348Z,1000.16
2023-08-24T10:42:13.165Z,1000.16
2023-08-24T10:43:13.266Z,1000.15
2023-08-24T10:44:13.479Z,1000.14
2023-08-24T10:45:13.506Z,1000.14
2023-08-24T10:46:13.406Z,1000.13
2023-08-24T10:47:13.293Z,1000.10
2023-08-24T10:48:13.405Z,1000.12
2023-08-24T10:49:13.409Z,1000.13
2023-08-24T10:50:13.346Z,1000.10
2023-08-24T10:51:13.165Z,1000.08
2023-08-24T10:52:12.984Z,1000.07
2023-08-24T10:53:12.926Z,1000.02
2023-08-24T10:54:13.037Z,1000.03
2023-08-24T10:55:13.172Z,999.99
2023-08-24T10:56:13.105Z,999.95
2023-08-24T10:57:12.817Z,999.94
2023-08-24T10:58:14.018Z,999.93
2023-08-24T10:59:14.313Z,999.93
2023-08-24T11:00:13.308Z,999.96
2023-08-24T11:01:13.264Z,999.94
2023-08-24T11:02:13.369Z,999.95
2023-08-24T11:03:13.214Z,999.97
2023-08-24T11:04:13.304Z,999.90
2023-08-24T11:05:13.408Z,999.92
2023-08-24T11:06:13.487Z,999.90
2023-08-24T11:07:14.488Z,999.88
2023-08-24T11:08:13.314Z,999.86
2023-08-24T11:09:13.145Z,999.90
2023-08-24T11:10:13.141Z,999.89
2023-08-24T11:11:13.327Z,999.87
2023-08-24T11:12:13.334Z,999.90
2023-08-24T11:13:13.296Z,999.88
2023-08-24T11:14:13.213Z,999.81
2023-08-24T11:15:13.297Z,999.85
2023-08-24T11:16:13.342Z,999.83
2023-08-24T11:17:13.248Z,999.87
2023-08-24T11:18:13.267Z,999.85
2023-08-24T11:19:13.402Z,999.83
2023-08-24T11:20:13.241Z,999.84
2023-08-24T11:21:13.342Z,999.84
2023-08-24T11:22:13.396Z,999.85
2023-08-24T11:23:13.277Z,999.83
2023-08-24T11:24:13.196Z,999.88
2023-08-24T11:25:13.277Z,999.85
2023-08-24T11:26:13.808Z,999.89
2023-08-24T11:27:13.701Z,999.85
2023-08-24T11:28:14.869Z,999.83
2023-08-24T11:29:13.750Z,999.77
2023-08-24T11:30:13.753Z,999.77
2023-08-24T11:31:14.021Z,999.69
2023-08-24T11:32:13.022Z,999.70
2023-08-24T11:33:12.886Z,999.63
2023-08-24T11:34:12.782Z,999.61
2023-08-24T11:35:13.931Z,999.58
2023-08-24T11:36:12.847Z,999.52
2023-08-24T11:37:13.599Z,999.50
2023-08-24T11:38:13.784Z,999.51
2023-08-24T11:39:13.793Z,999.47
2023-08-24T11:40:13.688Z,999.38
2023-08-24T11:41:13.667Z,999.31
2023-08-24T11:42:13.564Z,999.28
2023-08-24T11:43:13.758Z,999.26
2023-08-24T11:44:23.188Z,999.25
2023-08-24T11:45:13.540Z,999.22
2023-08-24T11:46:13.539Z,999.20
2023-08-24T11:47:13.407Z,999.21
2023-08-24T11:48:13.278Z,999.20
2023-08-24T11:49:13.483Z,999.21
2023-08-24T11:50:13.522Z,999.25
2023-08-24T11:51:13.650Z,999.32
2023-08-24T11:52:13.764Z,999.31
2023-08-24T11:53:13.857Z,999.28
2023-08-24T11:54:14.029Z,999.29
2023-08-24T11:55:13.145Z,999.27
2023-08-24T11:56:13.222Z,999.21
2023-08-24T11:57:13.334Z,999.21
2023-08-24T11:58:13.078Z,999.20
2023-08-24T11:59:12.884Z,999.25
2023-08-24T12:00:12.753Z,999.25
2023-08-24T12:01:13.878Z,999.26
2023-08-24T12:02:12.738Z,999.27
2023-08-24T12:03:13.934Z,999.27
2023-08-24T12:04:13.072Z,999.22
2023-08-24T12:05:12.961Z,999.21
2023-08-24T12:06:12.890Z,999.24
2023-08-24T12:07:13.067Z,999.23
2023-08-24T12:08:12.934Z,999.21
2023-08-24T12:09:12.865Z,999.21
2023-08-24T12:10:13.852Z,999.28
2023-08-24T12:11:13.974Z,999.30
2023-08-24T12:12:12.888Z,999.31
2023-08-24T12:13:13.270Z,999.35
2023-08-24T12:14:13.343Z,999.38